Time;durP1;ratioP1;P1;durP2;ratioP2;P2;SDS_P1;SDS_P2;PMS_P1;PMS_P2;Temp;Humidity;BMP_temperature;BMP_pressure;BME280_temperature;BME280_humidity;BME280_pressure;Samples;Min_cycle;Max_cycle;Signal;HPM_P1;HPM_P2
2021/01/10 00:00:12;;;;;;;19.82;12.93;;;;;;;0.07;93.59;99788.28;1841441;78;22227;-60
2021/01/10 00:02:40;;;;;;;19.90;12.53;;;;;;;0.04;92.98;99795.50;1841402;78;21061;-59
2021/01/10 00:05:12;;;;;;;18.57;11.97;;;;;;;-0.01;92.98;99796.70;1841261;77;21125;-60
2021/01/10 00:07:41;;;;;;;19.35;12.20;;;;;;;-0.04;92.98;99794.10;1841029;78;21057;-59
2021/01/10 00:10:10;;;;;;;20.23;12.75;;;;;;;-0.07;93.17;99798.32;1841330;78;21074;-59
2021/01/10 00:12:38;;;;;;;17.80;12.07;;;;;;;-0.08;93.03;99797.43;1841493;77;21356;-59
2021/01/10 00:15:09;;;;;;;18.02;11.97;;;;;;;-0.09;93.02;99794.86;1841323;78;21144;-58
2021/01/10 00:17:39;;;;;;;18.27;12.25;;;;;;;-0.13;93.00;99797.80;1841496;78;21097;-59
2021/01/10 00:20:09;;;;;;;19.40;12.95;;;;;;;-0.16;93.01;99805.39;1841264;78;21148;-59
2021/01/10 00:22:37;;;;;;;18.15;13.00;;;;;;;-0.21;93.14;99799.37;1841429;78;21117;-59
2021/01/10 00:25:06;;;;;;;19.50;13.28;;;;;;;-0.23;93.34;99802.71;1837329;77;21358;-59
2021/01/10 00:27:34;;;;;;;17.95;12.37;;;;;;;-0.26;93.44;99802.25;1790458;80;21147;-59
2021/01/10 00:30:06;;;;;;;19.07;13.00;;;;;;;-0.30;93.36;99808.16;1790910;80;21041;-59
2021/01/10 00:32:34;;;;;;;19.65;13.15;;;;;;;-0.32;93.48;99808.53;1790917;79;21057;-59
2021/01/10 00:35:05;;;;;;;16.85;12.37;;;;;;;-0.33;93.69;99810.65;1789703;80;21176;-60
2021/01/10 00:37:33;;;;;;;18.55;12.50;;;;;;;-0.36;93.73;99812.75;1790498;80;21303;-59
2021/01/10 00:40:00;;;;;;;18.32;12.90;;;;;;;-0.38;93.68;99816.97;1790432;80;21106;-58
2021/01/10 00:42:28;;;;;;;18.00;12.95;;;;;;;-0.41;93.66;99819.45;1789986;80;21598;-59
2021/01/10 00:44:55;;;;;;;18.85;12.43;;;;;;;-0.43;93.77;99820.27;1790450;80;21089;-59
2021/01/10 00:47:24;;;;;;;17.70;12.10;;;;;;;-0.42;93.91;99824.55;1789539;80;21191;-59
2021/01/10 00:49:53;;;;;;;16.15;11.75;;;;;;;-0.44;93.82;99830.05;1766559;80;22242;-59
2021/01/10 00:52:21;;;;;;;17.90;12.90;;;;;;;-0.48;93.77;99826.56;1790730;80;21550;-58
2021/01/10 00:54:50;;;;;;;19.12;12.53;;;;;;;-0.51;93.85;99836.73;1790787;80;21049;-58
2021/01/10 00:57:18;;;;;;;16.75;11.93;;;;;;;-0.52;94.09;99829.05;1790743;80;21114;-59
2021/01/10 00:59:46;;;;;;;19.55;12.88;;;;;;;-0.54;94.26;99832.83;1790841;80;21101;-59
2021/01/10 01:02:14;;;;;;;20.48;13.20;;;;;;;-0.56;94.41;99835.36;1790760;80;21353;-60
2021/01/10 01:04:45;;;;;;;17.32;12.05;;;;;;;-0.57;94.52;99836.20;1790467;80;21073;-59
2021/01/10 01:07:14;;;;;;;16.50;11.78;;;;;;;-0.57;94.60;99835.34;1808026;79;21041;-60
2021/01/10 01:09:43;;;;;;;15.80;12.07;;;;;;;-0.61;94.73;99828.02;1815741;79;21577;-59
2021/01/10 01:12:13;;;;;;;15.68;11.70;;;;;;;-0.61;94.79;99831.85;1810815;79;21056;-60
2021/01/10 01:14:40;;;;;;;18.77;12.73;;;;;;;-0.62;94.88;99829.28;1815647;79;21718;-59
2021/01/10 01:17:08;;;;;;;18.32;12.85;;;;;;;-0.66;94.99;99832.20;1815641;79;21157;-59
2021/01/10 01:19:36;;;;;;;15.15;11.68;;;;;;;-0.67;95.02;99833.46;1815607;79;21144;-60
2021/01/10 01:22:05;;;;;;;15.35;11.03;;;;;;;-0.68;95.24;99834.27;1815727;79;21100;-59
2021/01/10 01:24:33;;;;;;;16.52;12.13;;;;;;;-0.67;95.27;99832.18;1815681;79;21454;-59
2021/01/10 01:27:00;;;;;;;15.10;11.90;;;;;;;-0.68;95.42;99829.16;1815587;79;21324;-59
2021/01/10 01:29:28;;;;;;;15.35;11.63;;;;;;;-0.70;95.45;99830.41;1815654;79;21116;-59
2021/01/10 01:31:56;;;;;;;14.83;10.88;;;;;;;-0.68;95.56;99828.77;1815741;79;21112;-59
2021/01/10 01:34:24;;;;;;;17.10;12.07;;;;;;;-0.66;95.59;99829.66;1815579;79;21053;-59
2021/01/10 01:36:51;;;;;;;15.90;12.33;;;;;;;-0.65;95.52;99835.62;1815855;79;21081;-59
2021/01/10 01:39:19;;;;;;;17.00;12.60;;;;;;;-0.67;95.66;99830.91;1815556;79;21207;-59
2021/01/10 01:41:48;;;;;;;17.32;12.18;;;;;;;-0.67;95.73;99834.31;1815510;79;21151;-59
2021/01/10 01:44:17;;;;;;;18.32;12.63;;;;;;;-0.67;95.68;99830.91;1815597;79;21105;-59
2021/01/10 01:46:44;;;;;;;15.88;12.05;;;;;;;-0.69;95.67;99838.52;1815830;79;21179;-59
2021/01/10 01:49:12;;;;;;;15.28;11.40;;;;;;;-0.70;95.72;99837.22;1815585;79;21112;-59
2021/01/10 01:51:41;;;;;;;17.77;12.40;;;;;;;-0.70;95.79;99832.11;1815823;79;21116;-59
2021/01/10 01:54:09;;;;;;;17.10;11.75;;;;;;;-0.70;95.81;99838.48;1815721;79;21156;-59
2021/01/10 01:56:36;;;;;;;17.40;12.65;;;;;;;-0.71;95.87;99834.22;1815723;79;21116;-58
2021/01/10 01:59:07;;;;;;;16.67;12.50;;;;;;;-0.73;95.89;99843.55;1815695;79;21109;-59
2021/01/10 02:01:37;;;;;;;16.45;12.45;;;;;;;-0.71;95.99;99843.16;1815662;79;21180;-59
2021/01/10 02:04:25;;;;;;;17.98;11.88;;;;;;;-0.70;96.14;99839.77;1815728;79;21411;-59
2021/01/10 02:07:24;;;;;;;16.75;12.15;;;;;;;-0.70;96.07;99844.45;1815587;79;21070;-59
2021/01/10 02:10:00;;;;;;;18.23;12.30;;;;;;;-0.70;96.17;99841.05;1815721;79;21045;-57
2021/01/10 02:12:28;;;;;;;14.53;10.03;;;;;;;-0.71;96.16;99844.43;1813113;79;21120;-57
2021/01/10 02:15:10;;;;;;;19.62;12.58;;;;;;;-0.72;96.32;99845.27;1815734;79;21108;-58
2021/01/10 02:17:39;;;;;;;17.65;12.23;;;;;;;-0.72;96.32;99849.09;1815630;79;21365;-58
2021/01/10 02:20:09;;;;;;;17.07;11.97;;;;;;;-0.72;96.28;99849.09;1815690;79;21125;-58
2021/01/10 02:22:41;;;;;;;18.10;12.70;;;;;;;-0.72;96.39;99854.20;1815572;79;21156;-58
2021/01/10 02:25:11;;;;;;;18.77;13.05;;;;;;;-0.71;96.44;99852.95;1803759;79;21066;-57
2021/01/10 02:27:41;;;;;;;19.50;12.28;;;;;;;-0.70;96.34;99854.66;1815724;79;21140;-57
2021/01/10 02:30:10;;;;;;;17.32;12.95;;;;;;;-0.72;96.26;99855.06;1816012;79;21364;-58
2021/01/10 02:32:42;;;;;;;16.07;12.60;;;;;;;-0.73;96.37;99855.03;1782421;79;21152;-57
2021/01/10 02:35:10;;;;;;;18.82;13.45;;;;;;;-0.71;96.43;99867.41;1815879;79;21499;-57
2021/01/10 02:38:00;;;;;;;17.07;12.58;;;;;;;-0.68;96.58;99858.13;1808632;79;21160;-58
2021/01/10 02:40:41;;;;;;;17.05;12.70;;;;;;;-0.67;96.56;99862.82;1815772;79;21100;-57
2021/01/10 02:43:17;;;;;;;17.30;11.78;;;;;;;-0.66;96.50;99860.70;1815286;79;21577;-58
2021/01/10 02:45:45;;;;;;;15.70;11.50;;;;;;;-0.64;96.55;99860.31;1816097;79;21148;-59
2021/01/10 02:48:13;;;;;;;18.17;12.85;;;;;;;-0.63;96.56;99859.48;1808697;79;21065;-59
2021/01/10 02:50:42;;;;;;;18.62;12.40;;;;;;;-0.64;96.63;99855.20;1815813;79;21124;-59
2021/01/10 02:53:10;;;;;;;18.00;13.05;;;;;;;-0.68;96.63;99854.69;1815996;79;21080;-58
2021/01/10 02:55:39;;;;;;;18.77;13.62;;;;;;;-0.68;96.78;99864.91;1815641;79;21411;-59
2021/01/10 02:58:12;;;;;;;17.12;12.73;;;;;;;-0.66;96.82;99856.46;1815745;79;21123;-59
2021/01/10 03:00:39;;;;;;;19.80;13.80;;;;;;;-0.64;96.93;99859.03;1815289;79;21445;-57
2021/01/10 03:03:07;;;;;;;19.35;13.40;;;;;;;-0.64;96.85;99862.87;1815921;79;21140;-58
2021/01/10 03:05:35;;;;;;;19.92;13.15;;;;;;;-0.63;96.93;99859.48;1782388;79;21168;-57
2021/01/10 03:08:04;;;;;;;19.48;12.68;;;;;;;-0.65;96.94;99867.53;1798494;79;21195;-58
2021/01/10 03:10:33;;;;;;;19.02;12.33;;;;;;;-0.64;97.10;99856.48;1793150;79;21490;-58
2021/01/10 03:13:02;;;;;;;16.70;12.60;;;;;;;-0.63;97.19;99868.41;1793159;80;21472;-59
2021/01/10 03:15:29;;;;;;;19.67;13.08;;;;;;;-0.62;97.19;99859.50;1768833;80;21050;-59
2021/01/10 03:17:57;;;;;;;19.50;12.75;;;;;;;-0.61;97.23;99868.88;1769189;80;21113;-59
2021/01/10 03:20:25;;;;;;;20.55;13.98;;;;;;;-0.59;97.24;99862.13;1793166;78;21194;-60
2021/01/10 03:22:53;;;;;;;20.17;13.48;;;;;;;-0.56;97.30;99862.59;1792864;78;21070;-59
2021/01/10 03:25:23;;;;;;;20.88;14.55;;;;;;;-0.54;97.31;99864.75;1792966;80;21102;-61
2021/01/10 03:27:52;;;;;;;21.12;13.43;;;;;;;-0.52;97.36;99868.22;1793206;80;21070;-59
2021/01/10 03:30:20;;;;;;;19.17;12.98;;;;;;;-0.50;97.35;99862.72;1793202;80;21086;-59
2021/01/10 03:32:49;;;;;;;20.85;14.18;;;;;;;-0.48;97.24;99866.15;1793351;80;21213;-59
2021/01/10 03:35:17;;;;;;;25.17;15.78;;;;;;;-0.51;97.15;99861.00;1793133;80;21153;-59
2021/01/10 03:37:45;;;;;;;22.30;15.85;;;;;;;-0.49;97.25;99866.13;1793248;78;21145;-59
2021/01/10 03:40:14;;;;;;;26.05;16.60;;;;;;;-0.49;97.21;99850.80;1792976;80;21054;-59
2021/01/10 03:42:41;;;;;;;22.25;14.87;;;;;;;-0.50;97.31;99851.22;1793143;79;21182;-59
2021/01/10 03:45:11;;;;;;;21.55;14.63;;;;;;;-0.49;97.46;99850.38;1793401;80;22160;-59
2021/01/10 03:47:39;;;;;;;21.48;14.78;;;;;;;-0.46;97.48;99850.43;1793052;80;21134;-59
2021/01/10 03:50:08;;;;;;;18.57;13.62;;;;;;;-0.46;97.53;99851.70;1793264;80;21090;-59
2021/01/10 03:52:36;;;;;;;22.87;14.60;;;;;;;-0.47;97.60;99843.60;1793049;78;21119;-59
2021/01/10 03:55:07;;;;;;;21.80;14.43;;;;;;;-0.51;97.68;99851.20;1793234;78;21153;-59
2021/01/10 03:57:38;;;;;;;21.30;14.53;;;;;;;-0.53;97.72;99856.25;1793057;80;21363;-59
2021/01/10 04:00:08;;;;;;;21.55;14.63;;;;;;;-0.54;97.87;99854.53;1793235;80;21153;-59
2021/01/10 04:02:36;;;;;;;25.48;15.55;;;;;;;-0.56;97.80;99854.94;1793298;80;21106;-59
2021/01/10 04:05:08;;;;;;;21.55;15.30;;;;;;;-0.56;97.84;99857.07;1793145;80;21153;-58
2021/01/10 04:07:35;;;;;;;21.77;15.43;;;;;;;-0.56;97.89;99856.21;1802740;79;21127;-59
2021/01/10 04:10:05;;;;;;;22.85;16.40;;;;;;;-0.52;98.01;99858.42;1815709;79;21151;-59
2021/01/10 04:12:33;;;;;;;24.00;15.60;;;;;;;-0.50;98.08;99862.72;1815453;79;21184;-59
2021/01/10 04:15:01;;;;;;;22.07;15.32;;;;;;;-0.45;97.99;99863.67;1815655;79;21048;-58
2021/01/10 04:17:29;;;;;;;23.12;15.45;;;;;;;-0.44;97.87;99867.94;1815787;79;21151;-58
2021/01/10 04:19:58;;;;;;;20.92;14.83;;;;;;;-0.43;97.62;99858.59;1815974;79;21116;-58
2021/01/10 04:22:26;;;;;;;24.23;15.63;;;;;;;-0.43;97.58;99865.83;1815523;79;21359;-59
2021/01/10 04:24:54;;;;;;;22.25;15.10;;;;;;;-0.44;97.42;99869.22;1815798;79;21151;-58
2021/01/10 04:27:22;;;;;;;24.18;15.83;;;;;;;-0.42;97.52;99866.27;1815633;79;21077;-58
2021/01/10 04:29:52;;;;;;;22.48;15.60;;;;;;;-0.42;97.42;99870.52;1815547;79;21105;-58
2021/01/10 04:32:20;;;;;;;24.50;16.85;;;;;;;-0.42;97.38;99868.83;1815828;79;21518;-58
2021/01/10 04:34:49;;;;;;;24.20;16.45;;;;;;;-0.41;97.44;99869.27;1815838;79;21199;-57
2021/01/10 04:37:16;;;;;;;22.07;15.50;;;;;;;-0.39;97.52;99865.45;1815900;79;21109;-57
2021/01/10 04:39:44;;;;;;;25.57;16.57;;;;;;;-0.39;97.50;99865.45;1815691;79;21145;-58
2021/01/10 04:42:14;;;;;;;21.97;14.63;;;;;;;-0.40;97.35;99864.59;1815809;79;21077;-57
2021/01/10 04:44:43;;;;;;;23.70;16.05;;;;;;;-0.41;97.45;99866.70;1815653;79;21069;-58
2021/01/10 04:47:10;;;;;;;26.50;17.95;;;;;;;-0.42;97.52;99868.83;1808565;79;21369;-57
2021/01/10 04:49:39;;;;;;;22.22;14.93;;;;;;;-0.42;97.62;99876.48;1815620;79;21100;-58
2021/01/10 04:52:07;;;;;;;25.92;17.10;;;;;;;-0.41;97.70;99880.76;1815745;79;21097;-58
2021/01/10 04:54:42;;;;;;;14.80;11.35;;;;;;;-0.41;97.82;99893.53;1815641;79;21152;-58
2021/01/10 04:57:11;;;;;;;11.55;8.30;;;;;;;-0.40;97.74;99895.25;1816077;79;21057;-57
2021/01/10 04:59:42;;;;;;;7.22;5.03;;;;;;;-0.43;97.09;99892.65;1815600;79;21364;-57
2021/01/10 05:02:10;;;;;;;4.78;3.75;;;;;;;-0.46;96.59;99896.40;1815836;79;21069;-59
2021/01/10 05:04:39;;;;;;;4.03;3.17;;;;;;;-0.53;95.96;99900.95;1815444;79;21471;-59
2021/01/10 05:07:07;;;;;;;3.98;3.20;;;;;;;-0.61;96.03;99908.87;1755061;79;21133;-61
2021/01/10 05:09:36;;;;;;;4.22;3.47;;;;;;;-0.68;95.98;99915.96;1793038;80;21133;-60
2021/01/10 05:12:05;;;;;;;4.85;3.77;;;;;;;-0.72;95.95;99913.78;1793275;80;21219;-58
2021/01/10 05:14:33;;;;;;;7.30;5.50;;;;;;;-0.72;96.13;99914.20;1792977;80;21216;-58
2021/01/10 05:17:03;;;;;;;6.67;5.12;;;;;;;-0.72;96.09;99922.72;1793030;80;21054;-58
2021/01/10 05:19:31;;;;;;;6.58;4.87;;;;;;;-0.74;96.09;99916.72;1792953;80;21069;-58
2021/01/10 05:22:05;;;;;;;6.33;5.12;;;;;;;-0.75;95.78;99923.08;1793074;79;21090;-58
2021/01/10 05:24:28;;;;;;;7.03;5.22;;;;;;;-0.79;95.74;99927.66;1792680;78;21282;-62
2021/01/10 05:26:57;;;;;;;7.80;5.22;;;;;;;-0.84;95.80;99924.58;1768929;80;21113;-59
2021/01/10 05:29:26;;;;;;;7.17;5.83;;;;;;;-0.86;95.71;99931.36;1793153;80;21321;-58
2021/01/10 05:31:54;;;;;;;8.35;6.30;;;;;;;-0.88;95.67;99930.47;1792973;80;21594;-58
2021/01/10 05:34:24;;;;;;;8.53;6.80;;;;;;;-0.89;95.77;99927.48;1769137;80;21065;-58
2021/01/10 05:36:52;;;;;;;8.93;6.70;;;;;;;-0.89;95.83;99931.30;1793046;80;21383;-59
2021/01/10 05:39:25;;;;;;;7.62;5.75;;;;;;;-0.91;95.84;99934.25;1793030;80;21082;-58
2021/01/10 05:41:59;;;;;;;8.25;6.20;;;;;;;-0.94;95.75;99935.44;1793110;80;21094;-58
2021/01/10 05:44:29;;;;;;;8.15;6.45;;;;;;;-0.95;95.66;99944.34;1792955;80;21107;-59
2021/01/10 05:47:07;;;;;;;10.00;7.10;;;;;;;-0.97;95.48;99935.80;1793239;80;21133;-59
2021/01/10 05:49:47;;;;;;;16.90;11.28;;;;;;;-0.99;95.16;99938.30;1792908;80;21575;-60
2021/01/10 05:52:15;;;;;;;14.28;10.43;;;;;;;-1.03;95.02;99943.31;1771511;80;21157;-59
2021/01/10 05:54:53;;;;;;;13.35;8.85;;;;;;;-1.05;94.97;99953.50;1792902;80;21039;-60
2021/01/10 05:57:28;;;;;;;17.17;11.05;;;;;;;-1.07;94.80;99952.58;1793198;80;21053;-59
2021/01/10 05:59:56;;;;;;;30.97;17.93;;;;;;;-1.06;94.48;99961.95;1793395;78;21139;-60
2021/01/10 06:02:36;;;;;;;22.62;12.58;;;;;;;-1.09;94.38;99959.34;1793065;79;21196;-59
2021/01/10 06:05:18;;;;;;;21.57;13.32;;;;;;;-1.11;93.79;99961.01;1793095;80;21062;-61
2021/01/10 06:07:48;;;;;;;20.23;13.50;;;;;;;-1.15;93.90;99965.16;1792990;78;21069;-61
2021/01/10 06:10:28;;;;;;;31.57;20.52;;;;;;;-1.15;94.03;99970.67;1793093;78;21133;-58
2021/01/10 06:13:04;;;;;;;27.67;17.17;;;;;;;-1.15;94.20;99968.13;1792982;80;37572;-58
2021/01/10 06:15:33;;;;;;;27.35;17.90;;;;;;;-1.13;94.39;99972.46;1792741;80;21453;-62
2021/01/10 06:18:02;;;;;;;19.70;13.70;;;;;;;-1.11;94.40;99976.31;1793158;78;21069;-59
2021/01/10 06:20:32;;;;;;;29.12;18.55;;;;;;;-1.08;94.39;99978.92;1793006;80;21058;-59
2021/01/10 06:23:03;;;;;;;25.48;16.17;;;;;;;-1.08;94.50;99969.99;1793181;78;21156;-59
2021/01/10 06:25:32;;;;;;;17.00;12.18;;;;;;;-1.07;94.33;99979.37;1793054;80;21062;-59
2021/01/10 06:28:19;;;;;;;24.98;18.42;;;;;;;-1.06;94.46;99984.91;1793277;78;22225;-59
2021/01/10 06:30:53;;;;;;;;;;;;;;;-1.02;94.48;99989.69;1795301;80;21102;-60
2021/01/10 06:33:26;;;;;;;32.00;16.85;;;;;;;-1.00;94.47;99983.78;1793113;78;20209;-59
2021/01/10 06:35:53;;;;;;;19.60;12.83;;;;;;;-0.97;94.61;99986.84;1792843;80;21450;-60
2021/01/10 06:38:22;;;;;;;16.87;10.68;;;;;;;-0.92;94.67;99992.47;1769061;80;21130;-60
2021/01/10 06:41:10;;;;;;;17.87;11.53;;;;;;;-0.86;94.56;99993.89;1792961;80;21377;-60
2021/01/10 06:43:41;;;;;;;18.15;11.83;;;;;;;-0.85;94.35;99994.34;1767656;80;21107;-60
2021/01/10 06:46:08;;;;;;;16.60;11.45;;;;;;;-0.80;94.38;99999.55;1793023;78;21110;-60
2021/01/10 06:48:36;;;;;;;16.32;10.95;;;;;;;-0.73;94.38;100006.94;1792944;78;21126;-60
2021/01/10 06:51:05;;;;;;;17.50;12.60;;;;;;;-0.67;94.13;100007.08;1793244;79;21634;-60
2021/01/10 06:53:32;;;;;;;17.48;12.18;;;;;;;-0.62;93.98;100011.84;1793046;80;21157;-60
2021/01/10 06:56:00;;;;;;;16.97;12.80;;;;;;;-0.60;93.68;100017.45;1792983;78;21118;-59
2021/01/10 06:58:28;;;;;;;18.52;12.07;;;;;;;-0.56;93.48;100022.20;1792874;80;21122;-60
2021/01/10 07:00:58;;;;;;;15.32;11.68;;;;;;;-0.53;93.35;100022.25;1793082;80;21180;-60
2021/01/10 07:03:26;;;;;;;18.90;11.63;;;;;;;-0.48;93.44;100020.66;1793146;80;21113;-60
2021/01/10 07:06:06;;;;;;;23.10;14.30;;;;;;;-0.44;93.22;100021.19;1793023;78;21204;-59
2021/01/10 07:08:55;;;;;;;14.68;10.48;;;;;;;-0.37;92.99;100024.32;1792998;78;21050;-59
2021/01/10 07:11:29;;;;;;;15.38;11.18;;;;;;;-0.31;92.44;100022.28;1793084;80;21050;-59
2021/01/10 07:14:02;;;;;;;16.20;11.10;;;;;;;-0.35;92.17;100022.66;1793156;80;21153;-60
2021/01/10 07:16:30;;;;;;;15.43;11.63;;;;;;;-0.35;92.11;100030.31;1793242;80;21169;-58
2021/01/10 07:19:03;;;;;;;15.83;11.40;;;;;;;-0.33;91.84;100034.17;1793289;80;22238;-59
2021/01/10 07:21:44;;;;;;;16.57;11.15;;;;;;;-0.35;91.72;100032.88;1793276;80;21070;-59
2021/01/10 07:24:20;;;;;;;16.80;11.50;;;;;;;-0.33;91.61;100041.84;1793338;78;21062;-58
2021/01/10 07:26:58;;;;;;;16.52;10.80;;;;;;;-0.34;91.41;100038.84;1793200;80;21086;-58
2021/01/10 07:29:38;;;;;;;16.77;11.15;;;;;;;-0.31;91.43;100042.30;1793214;78;21140;-58
2021/01/10 07:32:16;;;;;;;15.70;11.12;;;;;;;-0.24;91.43;100046.27;1793384;78;21194;-60
2021/01/10 07:34:50;;;;;;;15.95;10.78;;;;;;;-0.21;91.13;100047.21;1793179;80;21085;-61
2021/01/10 07:37:28;;;;;;;15.58;10.43;;;;;;;-0.17;91.09;100037.90;1793163;80;21105;-60
2021/01/10 07:40:07;;;;;;;23.80;14.07;;;;;;;-0.14;90.92;100039.26;1793084;78;21105;-61
2021/01/10 07:42:37;;;;;;;18.35;12.53;;;;;;;-0.15;90.60;100043.89;1793170;80;21168;-61
2021/01/10 07:45:20;;;;;;;17.67;11.73;;;;;;;-0.21;90.02;100053.60;1793309;78;21503;-60
2021/01/10 07:47:50;;;;;;;15.43;10.70;;;;;;;-0.29;89.88;100059.83;1792974;80;21101;-60
2021/01/10 07:50:22;;;;;;;19.27;12.05;;;;;;;-0.38;89.91;100061.30;1793094;80;21106;-60
2021/01/10 07:52:54;;;;;;;17.00;10.95;;;;;;;-0.45;90.14;100065.45;1793216;80;21093;-61
2021/01/10 07:55:24;;;;;;;18.05;11.30;;;;;;;-0.45;90.36;100065.45;1793018;80;21042;-61
2021/01/10 07:58:06;;;;;;;16.07;10.30;;;;;;;-0.43;90.30;100066.34;1792401;80;21429;-60
2021/01/10 08:00:35;;;;;;;17.02;11.63;;;;;;;-0.41;90.30;100072.75;1792747;80;21153;-60
2021/01/10 08:03:07;;;;;;;18.50;12.37;;;;;;;-0.44;90.33;100072.28;1792700;80;21086;-60
2021/01/10 08:05:39;;;;;;;17.05;11.45;;;;;;;-0.38;90.71;100071.52;1793348;80;21598;-60
2021/01/10 08:08:17;;;;;;;18.02;10.63;;;;;;;-0.31;90.49;100075.94;1793073;78;21119;-61
2021/01/10 08:10:53;;;;;;;17.45;10.95;;;;;;;-0.29;90.16;100076.44;1793162;80;21337;-61
2021/01/10 08:13:32;;;;;;;17.73;12.13;;;;;;;-0.31;89.97;100076.80;1793044;80;21054;-60
2021/01/10 08:16:33;;;;;;;19.90;12.28;;;;;;;-0.34;90.05;100078.02;1792934;78;21417;-60
2021/01/10 08:19:04;;;;;;;18.75;12.20;;;;;;;-0.31;90.26;100081.05;1792888;78;21986;-61
2021/01/10 08:21:32;;;;;;;20.35;12.73;;;;;;;-0.23;90.33;100082.48;1793302;78;21137;-60
2021/01/10 08:24:05;;;;;;;24.63;13.72;;;;;;;-0.18;90.20;100085.59;1792713;80;21373;-60
2021/01/10 08:26:41;;;;;;;21.07;13.70;;;;;;;-0.13;89.92;100085.70;1793170;80;21436;-60
2021/01/10 08:29:08;;;;;;;24.00;13.98;;;;;;;-0.08;90.03;100089.19;1792946;79;21125;-59
2021/01/10 08:31:38;;;;;;;21.75;13.72;;;;;;;-0.05;89.90;100085.02;1793089;78;21121;-58
2021/01/10 08:34:09;;;;;;;22.20;14.23;;;;;;;0.01;89.88;100080.87;1793155;80;21102;-58
2021/01/10 08:36:37;;;;;;;23.50;13.43;;;;;;;0.08;90.01;100083.59;1792964;78;21256;-60
2021/01/10 08:39:10;;;;;;;22.40;14.63;;;;;;;0.13;89.56;100077.27;1793121;79;21594;-59
2021/01/10 08:41:45;;;;;;;22.90;14.47;;;;;;;0.10;89.30;100081.91;1793127;79;21574;-58
2021/01/10 08:44:15;;;;;;;22.73;14.13;;;;;;;0.11;89.19;100089.16;1793238;80;21046;-59
2021/01/10 08:46:45;;;;;;;26.77;15.25;;;;;;;0.08;88.88;100087.42;1793230;78;21082;-62
2021/01/10 08:49:24;;;;;;;27.75;16.70;;;;;;;0.02;89.12;100091.13;1792921;80;21206;-59
2021/01/10 08:51:52;;;;;;;28.77;17.35;;;;;;;0.02;89.10;100091.13;1792961;80;21082;-59
2021/01/10 08:54:23;;;;;;;21.60;13.43;;;;;;;0.04;89.15;100091.15;1793073;80;21054;-61
2021/01/10 08:56:55;;;;;;;21.42;14.15;;;;;;;0.09;89.16;100086.59;1793037;80;21039;-61
2021/01/10 08:59:24;;;;;;;19.98;12.60;;;;;;;0.15;88.99;100086.72;1793137;80;21069;-61
2021/01/10 09:01:51;;;;;;;19.92;12.18;;;;;;;0.14;88.82;100090.49;1792993;80;21199;-61
2021/01/10 09:04:19;;;;;;;19.87;12.47;;;;;;;0.11;88.92;100092.58;1792874;78;21129;-61
2021/01/10 09:07:13;;;;;;;29.42;17.48;;;;;;;0.11;88.91;100096.42;1793085;79;21136;-62
2021/01/10 09:09:59;;;;;;;32.73;18.40;;;;;;;0.13;88.91;100097.30;1792918;79;21050;-60
2021/01/10 09:12:41;;;;;;;32.45;19.02;;;;;;;0.19;89.00;100094.02;1790764;80;21153;-60
2021/01/10 09:15:18;;;;;;;38.28;21.55;;;;;;;0.20;88.97;100094.03;1792936;80;21523;-60
2021/01/10 09:17:50;;;;;;;34.15;19.50;;;;;;;0.19;88.84;100096.56;1792663;80;21148;-61
2021/01/10 09:20:21;;;;;;;34.27;20.25;;;;;;;0.17;88.85;100100.38;1793201;80;21101;-60
2021/01/10 09:22:49;;;;;;;35.65;21.60;;;;;;;0.16;88.78;100102.91;1793106;78;21110;-60
2021/01/10 09:25:19;;;;;;;30.55;19.45;;;;;;;0.18;89.08;100095.70;1793210;78;21137;-60
2021/01/10 09:28:17;;;;;;;35.73;21.77;;;;;;;0.25;89.22;100106.50;1793111;80;21193;-61
2021/01/10 09:30:54;;;;;;;30.45;19.57;;;;;;;0.32;89.11;100106.62;1734590;82;21294;-63
2021/01/10 09:33:27;;;;;;;30.50;19.77;;;;;;;0.36;88.85;100102.00;1734862;82;21672;-60
2021/01/10 09:35:56;;;;;;;25.30;15.98;;;;;;;0.36;88.69;100096.89;1734603;82;21509;-60
2021/01/10 09:38:29;;;;;;;25.88;15.25;;;;;;;0.34;88.62;100092.17;1734728;82;21095;-60
2021/01/10 09:41:09;;;;;;;24.40;14.83;;;;;;;0.33;88.64;100093.87;1734595;82;21385;-60
2021/01/10 09:43:54;;;;;;;21.48;13.78;;;;;;;0.30;88.51;100100.18;1734654;82;21575;-60
2021/01/10 09:46:35;;;;;;;23.18;14.35;;;;;;;0.28;88.54;100101.86;1734715;82;21099;-60
2021/01/10 09:49:25;;;;;;;23.75;14.95;;;;;;;0.24;88.42;100100.95;1734428;82;21119;-60
2021/01/10 09:51:55;;;;;;;32.17;19.23;;;;;;;0.22;88.31;100100.45;1734642;82;21141;-60
2021/01/10 09:54:32;;;;;;;23.75;14.28;;;;;;;0.24;88.61;100099.67;1890211;76;28503;-60
2021/01/10 09:57:02;;;;;;;36.53;21.27;;;;;;;0.22;88.37;100101.31;1860874;77;21477;-61
2021/01/10 09:59:43;;;;;;;23.20;13.20;;;;;;;0.17;88.43;100105.49;1814967;79;22255;-60
2021/01/10 10:02:21;;;;;;;20.08;11.80;;;;;;;0.15;88.50;100104.61;1814658;79;21152;-60
2021/01/10 10:05:16;;;;;;;26.15;15.03;;;;;;;0.11;88.44;100116.88;1814784;79;21512;-61
2021/01/10 10:07:48;;;;;;;26.73;15.00;;;;;;;0.05;88.61;100109.48;1814955;79;21111;-60
2021/01/10 10:10:24;;;;;;;24.30;13.28;;;;;;;0.06;89.07;100117.18;1814770;78;21065;-60
2021/01/10 10:13:04;;;;;;;31.43;16.23;;;;;;;0.12;89.09;100110.92;1814842;78;21364;-60
2021/01/10 10:15:43;;;;;;;33.02;15.65;;;;;;;0.15;88.98;100111.00;1814721;79;21138;-60
2021/01/10 10:18:27;;;;;;;30.72;16.97;;;;;;;0.17;89.15;100101.66;1814846;79;21426;-60
2021/01/10 10:20:54;;;;;;;33.92;17.70;;;;;;;0.23;89.28;100112.02;1814728;79;21094;-60
2021/01/10 10:23:22;;;;;;;40.98;20.23;;;;;;;0.31;89.27;100107.47;1814837;79;21146;-60
2021/01/10 10:25:50;;;;;;;34.63;17.67;;;;;;;0.39;89.35;100109.34;1814583;79;21195;-61
2021/01/10 10:28:23;;;;;;;29.37;14.65;;;;;;;0.46;89.18;100111.59;1814900;78;21516;-60
2021/01/10 10:30:48;;;;;;;27.07;15.68;;;;;;;0.47;88.91;100109.06;1814535;79;21572;-60
2021/01/10 10:33:17;;;;;;;23.80;14.18;;;;;;;0.52;88.83;100111.69;1814464;79;21048;-60
2021/01/10 10:35:45;;;;;;;28.62;15.63;;;;;;;0.50;88.55;100110.80;1814807;79;21130;-60
2021/01/10 10:38:13;;;;;;;30.37;16.30;;;;;;;0.47;88.60;100109.06;1814700;79;21333;-60
2021/01/10 10:40:41;;;;;;;30.80;17.12;;;;;;;0.50;88.88;100110.38;1814725;79;21103;-60
2021/01/10 10:43:09;;;;;;;32.88;18.00;;;;;;;0.56;88.76;100112.20;1814418;79;21173;-60
2021/01/10 10:45:37;;;;;;;31.57;17.48;;;;;;;0.59;88.66;100113.52;1814749;79;21063;-60
2021/01/10 10:48:06;;;;;;;27.95;15.53;;;;;;;0.65;88.73;100112.78;1814391;78;21115;-60
2021/01/10 10:50:35;;;;;;;28.45;15.53;;;;;;;0.67;88.36;100118.78;1814778;79;21201;-60
2021/01/10 10:53:05;;;;;;;26.55;16.00;;;;;;;0.57;88.13;100117.76;1818744;78;21089;-60
2021/01/10 10:55:34;;;;;;;27.35;16.48;;;;;;;0.48;88.33;100112.06;1832072;78;21137;-60
2021/01/10 10:58:05;;;;;;;26.30;15.28;;;;;;;0.47;88.46;100117.16;1825581;78;21202;-60
2021/01/10 11:00:36;;;;;;;25.57;15.23;;;;;;;0.48;88.54;100111.20;1800092;79;21115;-61
2021/01/10 11:03:05;;;;;;;26.85;16.60;;;;;;;0.45;88.53;100109.84;1849923;77;21152;-61
2021/01/10 11:05:33;;;;;;;38.08;21.82;;;;;;;0.45;88.67;100110.70;1855232;77;21140;-61
2021/01/10 11:08:01;;;;;;;27.58;16.42;;;;;;;0.42;88.58;100109.38;1853887;77;21144;-62
2021/01/10 11:10:29;;;;;;;24.70;15.68;;;;;;;0.46;88.76;100112.88;1855011;77;21164;-59
2021/01/10 11:12:57;;;;;;;24.57;15.65;;;;;;;0.50;88.75;100109.52;1854920;77;21049;-59
2021/01/10 11:15:25;;;;;;;28.70;16.15;;;;;;;0.52;88.76;100112.97;1855134;77;22007;-58
2021/01/10 11:17:53;;;;;;;22.25;15.10;;;;;;;0.54;88.77;100113.46;1855025;77;21108;-59
2021/01/10 11:20:22;;;;;;;24.02;14.93;;;;;;;0.58;88.67;100111.80;1855238;77;21128;-59
2021/01/10 11:22:51;;;;;;;21.75;14.30;;;;;;;0.60;88.29;100111.41;1853184;77;21045;-60
2021/01/10 11:25:19;;;;;;;20.08;13.50;;;;;;;0.63;88.30;100116.59;1855002;77;21125;-59
2021/01/10 11:27:47;;;;;;;19.55;12.60;;;;;;;0.64;88.04;100117.04;1855157;77;21422;-59
2021/01/10 11:30:16;;;;;;;19.55;12.35;;;;;;;0.64;87.83;100117.04;1855090;77;21152;-58
2021/01/10 11:32:44;;;;;;;19.98;12.58;;;;;;;0.66;87.72;100119.20;1855232;77;21117;-58
2021/01/10 11:35:12;;;;;;;17.65;12.25;;;;;;;0.69;87.68;100126.09;1855037;77;21520;-59